KBUR

Bob Hope Airport

Burbank, California, USA
KBUR 221616Z 2216/2312 35006KT P6SM SKC FM221700 03012KT P6SM SKC FM222300 VRB03KT P6SM SKC
Issued Valid From Valid To
Jan-22 @ 16:16 UTC
(38 minutes ago)
Jan-22 @ 16:00 UTC
(54 minutes ago)
Jan-23 @ 12:00 UTC
(in 19 hours)
Jan-22 @ 16:00 to Jan-22 @ 17:00
KBUR 221616Z 2216/2312 35006KT P6SM SKC
Wind Visibility Clouds
350° at 6 knots Greater than 6 miles
  • Clear skies
From Jan-22 @ 17:00 to Jan-22 @ 23:00
FM221700 03012KT P6SM SKC
Wind Visibility Clouds
30° at 12 knots Greater than 6 miles
  • Clear skies
From Jan-22 @ 23:00 to Jan-23 @ 12:00
FM222300 VRB03KT P6SM SKC
Wind Visibility Clouds
Variable at 3 knots Greater than 6 miles
  • Clear skies
KBUR 221616Z 2216/2312 35006KT P6SM SKC FM221700 03012KT P6SM SKC FM222300 VRB03KT P6SM SKC
Issued Jan-22 @ 16:16 UTC
(38 minutes ago)
Valid From Jan-22 @ 16:00 UTC
(54 minutes ago)
Valid To Jan-23 @ 12:00 UTC
(in 19 hours)
Jan-22 @ 16:00 - Jan-22 @ 17:00
Wind Visibility
350° at 6 knots Greater than 6 miles
Clouds
  • Clear skies
From Jan-22 @ 17:00 - Jan-22 @ 23:00
Wind Visibility
30° at 12 knots Greater than 6 miles
Clouds
  • Clear skies
From Jan-22 @ 23:00 - Jan-23 @ 12:00
Wind Visibility
Variable at 3 knots Greater than 6 miles
Clouds
  • Clear skies